Time;durP1;ratioP1;P1;durP2;ratioP2;P2;SDS_P1;SDS_P2;PMS_P1;PMS_P2;Temp;Humidity;BMP_temperature;BMP_pressure;BME280_temperature;BME280_humidity;BME280_pressure;Samples;Min_cycle;Max_cycle;Signal;HPM_P1;HPM_P2
2023/01/27 00:01:18;;;;;;;4.00;3.70;;;;;;;;;;5080136;28;20588;-62
2023/01/27 00:03:46;;;;;;;4.22;3.83;;;;;;;;;;5079909;28;20308;-62
2023/01/27 00:06:14;;;;;;;3.42;3.20;;;;;;;;;;5079727;28;20210;-62
2023/01/27 00:08:41;;;;;;;4.30;3.90;;;;;;;;;;5079396;28;20536;-62
2023/01/27 00:13:56;;;;;;;3.80;3.50;;;;;;;;;;5079860;28;20191;-62
2023/01/27 00:16:23;;;;;;;4.03;3.72;;;;;;;;;;5079107;28;20296;-62
2023/01/27 00:18:52;;;;;;;3.90;3.60;;;;;;;;;;5079551;28;20266;-62
2023/01/27 00:26:49;;;;;;;3.70;3.40;;;;;;;;;;5079126;28;20241;-62
2023/01/27 00:29:18;;;;;;;3.30;3.00;;;;;;;;;;5079520;28;20211;-62
2023/01/27 00:34:31;;;;;;;3.70;3.40;;;;;;;;;;5078855;28;20216;-62
2023/01/27 00:36:58;;;;;;;3.65;3.35;;;;;;;;;;5079378;28;20254;-63
2023/01/27 00:39:26;;;;;;;3.30;3.10;;;;;;;;;;5079048;28;20211;-63
2023/01/27 00:41:54;;;;;;;3.63;3.33;;;;;;;;;;5079273;28;20311;-62
2023/01/27 00:44:23;;;;;;;3.47;3.17;;;;;;;;;;5079075;28;20211;-62
2023/01/27 00:46:51;;;;;;;3.35;3.05;;;;;;;;;;5079085;28;20243;-62
2023/01/27 00:49:19;;;;;;;3.25;2.97;;;;;;;;;;5079042;28;20525;-62
2023/01/27 00:51:47;;;;;;;3.55;3.25;;;;;;;;;;5078502;28;20232;-62
2023/01/27 00:54:14;;;;;;;3.17;2.97;;;;;;;;;;5078527;28;20215;-62
2023/01/27 00:56:42;;;;;;;2.83;2.63;;;;;;;;;;5078994;28;20230;-62
2023/01/27 00:59:10;;;;;;;3.28;2.97;;;;;;;;;;5078614;28;20212;-62
2023/01/27 01:01:39;;;;;;;3.17;2.95;;;;;;;;;;5078168;28;20211;-62
2023/01/27 01:04:07;;;;;;;3.33;3.03;;;;;;;;;;5078262;28;20215;-62
2023/01/27 01:06:35;;;;;;;3.38;3.08;;;;;;;;;;5078491;28;20208;-62
2023/01/27 01:09:02;;;;;;;3.05;2.85;;;;;;;;;;5078490;28;20208;-62
2023/01/27 01:11:30;;;;;;;3.40;3.10;;;;;;;;;;5078815;28;20295;-62
2023/01/27 01:13:58;;;;;;;3.33;3.03;;;;;;;;;;5078822;28;20236;-62
2023/01/27 01:16:26;;;;;;;3.30;3.00;;;;;;;;;;5078616;28;20228;-62
2023/01/27 01:18:55;;;;;;;3.03;2.72;;;;;;;;;;5078331;28;20265;-62
2023/01/27 01:21:22;;;;;;;3.05;2.75;;;;;;;;;;5078558;28;20296;-62
2023/01/27 01:23:50;;;;;;;3.30;3.00;;;;;;;;;;5078794;28;20338;-62
2023/01/27 01:26:18;;;;;;;2.78;2.53;;;;;;;;;;5077809;28;20240;-62
2023/01/27 01:28:46;;;;;;;3.05;2.83;;;;;;;;;;5077840;28;20265;-62
2023/01/27 01:31:15;;;;;;;3.13;2.90;;;;;;;;;;5078398;28;20495;-62
2023/01/27 01:33:43;;;;;;;3.25;2.95;;;;;;;;;;5078406;28;20580;-62
2023/01/27 01:36:13;;;;;;;3.22;2.90;;;;;;;;;;5078595;28;20228;-62
2023/01/27 01:38:41;;;;;;;3.40;2.80;;;;;;;;;;5078092;28;20526;-62
2023/01/27 01:41:11;;;;;;;3.30;2.95;;;;;;;;;;5078006;28;20204;-62
2023/01/27 01:43:39;;;;;;;3.17;2.88;;;;;;;;;;5078044;28;20492;-62
2023/01/27 01:46:09;;;;;;;3.10;2.80;;;;;;;;;;5078311;28;20200;-65
2023/01/27 01:48:39;;;;;;;3.03;2.72;;;;;;;;;;5078194;28;20204;-62
2023/01/27 01:51:10;;;;;;;3.08;2.78;;;;;;;;;;5077104;28;20596;-62
2023/01/27 01:53:40;;;;;;;3.22;2.92;;;;;;;;;;5074390;28;20235;-62
2023/01/27 01:56:11;;;;;;;3.28;2.90;;;;;;;;;;5076990;28;20232;-63
2023/01/27 01:58:39;;;;;;;3.47;3.17;;;;;;;;;;5067273;28;20231;-62
2023/01/27 02:01:07;;;;;;;3.60;3.28;;;;;;;;;;5078053;28;20204;-62
2023/01/27 02:03:38;;;;;;;3.45;3.15;;;;;;;;;;5092995;28;20282;-62
2023/01/27 02:06:06;;;;;;;4.07;3.60;;;;;;;;;;5097752;28;20203;-62
2023/01/27 02:08:36;;;;;;;3.58;3.28;;;;;;;;;;5098105;28;20203;-62
2023/01/27 02:11:06;;;;;;;3.22;2.92;;;;;;;;;;5098417;28;20203;-62
2023/01/27 02:13:33;;;;;;;3.45;3.15;;;;;;;;;;5098156;28;20523;-62
2023/01/27 02:16:01;;;;;;;3.65;3.35;;;;;;;;;;5078414;28;20315;-62
2023/01/27 02:18:29;;;;;;;3.72;3.33;;;;;;;;;;5077829;28;20212;-61
2023/01/27 02:20:57;;;;;;;3.72;3.42;;;;;;;;;;5077432;28;20247;-61
2023/01/27 02:23:40;;;;;;;3.70;3.35;;;;;;;;;;5077652;28;20205;-62
2023/01/27 02:26:12;;;;;;;4.18;3.60;;;;;;;;;;5077408;28;20231;-62
2023/01/27 02:28:39;;;;;;;3.60;3.30;;;;;;;;;;5077141;28;20255;-62
2023/01/27 02:31:07;;;;;;;3.75;3.42;;;;;;;;;;5077238;28;20572;-62
2023/01/27 02:33:35;;;;;;;4.15;3.78;;;;;;;;;;5077246;28;20661;-62
2023/01/27 02:36:04;;;;;;;3.80;3.50;;;;;;;;;;5077206;28;20224;-62
2023/01/27 02:38:34;;;;;;;4.18;3.78;;;;;;;;;;5077000;28;20212;-62
2023/01/27 02:41:04;;;;;;;3.80;3.40;;;;;;;;;;5077261;28;20215;-62
2023/01/27 02:43:33;;;;;;;3.92;3.53;;;;;;;;;;5077515;28;20215;-61
2023/01/27 02:46:01;;;;;;;3.75;3.28;;;;;;;;;;5077640;28;20200;-62
2023/01/27 02:48:28;;;;;;;4.00;3.60;;;;;;;;;;5077494;28;20210;-61
2023/01/27 02:50:56;;;;;;;3.95;3.47;;;;;;;;;;5076836;28;20585;-61
2023/01/27 02:53:24;;;;;;;4.25;3.85;;;;;;;;;;5058365;28;20311;-61
2023/01/27 02:55:52;;;;;;;3.85;3.50;;;;;;;;;;5056630;28;20244;-62
2023/01/27 02:58:19;;;;;;;3.88;3.50;;;;;;;;;;5056735;28;20209;-61
2023/01/27 03:00:49;;;;;;;4.13;3.50;;;;;;;;;;5056598;28;20256;-61
2023/01/27 03:03:16;;;;;;;3.53;3.22;;;;;;;;;;5056880;28;20201;-62
2023/01/27 03:05:45;;;;;;;4.07;3.53;;;;;;;;;;5057463;28;20193;-62
2023/01/27 03:08:13;;;;;;;3.80;3.40;;;;;;;;;;5056361;28;20635;-61
2023/01/27 03:10:41;;;;;;;3.88;3.42;;;;;;;;;;5056687;28;20245;-61
2023/01/27 03:13:08;;;;;;;3.83;3.50;;;;;;;;;;5057129;28;20283;-62
2023/01/27 03:18:23;;;;;;;4.97;3.97;;;;;;;;;;5056596;28;20195;-62
2023/01/27 03:20:51;;;;;;;4.07;3.58;;;;;;;;;;5056873;28;20198;-62
2023/01/27 03:23:20;;;;;;;3.80;3.15;;;;;;;;;;5056410;28;20301;-62
2023/01/27 03:25:48;;;;;;;4.40;3.85;;;;;;;;;;5056940;28;20205;-62
2023/01/27 03:28:16;;;;;;;3.95;3.55;;;;;;;;;;5056492;28;20201;-62
2023/01/27 03:30:44;;;;;;;3.92;3.53;;;;;;;;;;5056189;28;20205;-62
2023/01/27 03:33:12;;;;;;;4.07;3.67;;;;;;;;;;5056162;28;20204;-62
2023/01/27 03:35:47;;;;;;;3.90;3.50;;;;;;;;;;5056724;28;20237;-61
2023/01/27 03:46:31;;;;;;;4.93;3.30;;;;;;;;;;5056242;28;20492;-62
2023/01/27 03:48:59;;;;;;;4.45;3.55;;;;;;;;;;5056504;28;20205;-61
2023/01/27 03:51:28;;;;;;;3.83;3.30;;;;;;;;;;5060915;28;20612;-61
2023/01/27 03:53:56;;;;;;;4.90;3.80;;;;;;;;;;5080090;28;20574;-61
2023/01/27 03:56:24;;;;;;;4.18;3.72;;;;;;;;;;5079531;28;20235;-62
2023/01/27 03:58:52;;;;;;;4.32;3.92;;;;;;;;;;5078785;28;20208;-62
2023/01/27 04:01:20;;;;;;;4.53;3.55;;;;;;;;;;5072496;28;20204;-62
2023/01/27 04:06:53;;;;;;;4.72;3.90;;;;;;;;;;5078475;28;20599;-62
2023/01/27 04:09:22;;;;;;;4.03;3.47;;;;;;;;;;5079359;28;20210;-62
2023/01/27 04:11:57;;;;;;;3.67;3.25;;;;;;;;;;5079514;28;20200;-62
2023/01/27 04:14:26;;;;;;;4.30;3.67;;;;;;;;;;5078690;28;20210;-61
2023/01/27 04:16:54;;;;;;;4.05;3.60;;;;;;;;;;5078898;28;20255;-61
2023/01/27 04:19:22;;;;;;;4.20;3.60;;;;;;;;;;5078675;28;20206;-61
2023/01/27 04:21:51;;;;;;;4.15;3.75;;;;;;;;;;5079187;28;20208;-61
2023/01/27 04:24:23;;;;;;;4.22;3.35;;;;;;;;;;5079167;28;20200;-62
2023/01/27 04:26:55;;;;;;;3.90;3.47;;;;;;;;;;5079029;28;20212;-61
2023/01/27 04:29:23;;;;;;;3.67;3.35;;;;;;;;;;5079536;28;20205;-66
2023/01/27 04:31:51;;;;;;;4.10;3.70;;;;;;;;;;5076887;28;20254;-64
2023/01/27 04:34:19;;;;;;;3.70;3.08;;;;;;;;;;5079201;28;20204;-62
2023/01/27 04:36:47;;;;;;;3.65;3.20;;;;;;;;;;5079094;28;20224;-62
2023/01/27 04:39:17;;;;;;;3.30;3.00;;;;;;;;;;5078764;28;20200;-62
2023/01/27 04:41:45;;;;;;;4.35;3.80;;;;;;;;;;5078949;28;20270;-62
2023/01/27 04:44:13;;;;;;;3.70;2.95;;;;;;;;;;5079350;28;20552;-62
2023/01/27 04:46:41;;;;;;;3.80;3.40;;;;;;;;;;5079154;28;20211;-61
2023/01/27 04:49:09;;;;;;;3.47;3.17;;;;;;;;;;5079272;28;20251;-61
2023/01/27 04:51:38;;;;;;;3.75;3.22;;;;;;;;;;5094130;28;20228;-61
2023/01/27 04:54:05;;;;;;;3.60;3.25;;;;;;;;;;5099096;28;20211;-61
2023/01/27 04:56:35;;;;;;;3.97;3.40;;;;;;;;;;5098778;28;20230;-62
2023/01/27 04:59:04;;;;;;;3.88;3.33;;;;;;;;;;5098476;28;20215;-62
2023/01/27 05:01:31;;;;;;;4.10;3.70;;;;;;;;;;5098999;28;20195;-62
2023/01/27 05:03:59;;;;;;;4.88;3.22;;;;;;;;;;5098607;28;20204;-62
2023/01/27 05:06:27;;;;;;;3.58;3.17;;;;;;;;;;5098519;28;20257;-62
2023/01/27 05:08:55;;;;;;;3.65;3.35;;;;;;;;;;5098668;28;20465;-62
2023/01/27 05:11:22;;;;;;;3.90;3.50;;;;;;;;;;5099166;28;20515;-62
2023/01/27 05:13:51;;;;;;;3.72;3.38;;;;;;;;;;5098549;28;20211;-61
2023/01/27 05:16:19;;;;;;;3.90;3.22;;;;;;;;;;5098808;28;20500;-61
2023/01/27 05:18:47;;;;;;;3.70;3.40;;;;;;;;;;5098010;28;20204;-63
2023/01/27 05:21:16;;;;;;;3.60;3.30;;;;;;;;;;5097853;28;20203;-62
2023/01/27 05:23:43;;;;;;;3.85;3.40;;;;;;;;;;5098260;28;20712;-62
2023/01/27 05:26:12;;;;;;;3.60;3.28;;;;;;;;;;5094629;28;20591;-62
2023/01/27 05:28:40;;;;;;;3.72;3.22;;;;;;;;;;5077259;28;20211;-62
2023/01/27 05:31:10;;;;;;;4.03;3.38;;;;;;;;;;5077477;28;20488;-62
2023/01/27 05:33:38;;;;;;;3.63;3.20;;;;;;;;;;5077587;28;20585;-62
2023/01/27 05:36:07;;;;;;;3.80;3.40;;;;;;;;;;5077289;28;20491;-62
2023/01/27 05:38:34;;;;;;;3.92;3.33;;;;;;;;;;5077514;28;20274;-62
2023/01/27 05:41:03;;;;;;;3.30;3.00;;;;;;;;;;5076780;28;20204;-62
2023/01/27 05:43:31;;;;;;;3.63;3.25;;;;;;;;;;5077208;28;20217;-62
2023/01/27 05:46:05;;;;;;;3.22;2.92;;;;;;;;;;5077137;28;20200;-62
2023/01/27 05:48:34;;;;;;;3.20;2.88;;;;;;;;;;5076048;28;20291;-61
2023/01/27 05:51:02;;;;;;;3.05;2.80;;;;;;;;;;5076656;28;20220;-61
2023/01/27 05:53:30;;;;;;;3.33;2.97;;;;;;;;;;5076011;28;20535;-62
2023/01/27 05:55:57;;;;;;;3.63;3.28;;;;;;;;;;5075967;28;20201;-61
2023/01/27 05:58:25;;;;;;;3.35;2.85;;;;;;;;;;5076084;28;20487;-62
2023/01/27 06:00:52;;;;;;;3.25;2.95;;;;;;;;;;5076311;28;20208;-62
2023/01/27 06:03:20;;;;;;;3.13;2.83;;;;;;;;;;5075920;28;20208;-62
2023/01/27 06:05:52;;;;;;;3.22;2.80;;;;;;;;;;5075936;28;20205;-62
2023/01/27 06:08:20;;;;;;;3.15;2.85;;;;;;;;;;5075029;28;20215;-62
2023/01/27 06:10:47;;;;;;;3.30;3.00;;;;;;;;;;5075234;28;20208;-62
2023/01/27 06:13:15;;;;;;;3.20;2.90;;;;;;;;;;5075273;28;20197;-61
2023/01/27 06:15:43;;;;;;;3.53;3.22;;;;;;;;;;5075069;28;20214;-62
2023/01/27 06:18:10;;;;;;;3.08;2.67;;;;;;;;;;5074332;28;20224;-62
2023/01/27 06:20:38;;;;;;;3.17;2.63;;;;;;;;;;5074283;28;20200;-61
2023/01/27 06:23:07;;;;;;;3.30;3.00;;;;;;;;;;5073448;28;20263;-61
2023/01/27 06:25:36;;;;;;;3.17;2.88;;;;;;;;;;5074687;28;20725;-61
2023/01/27 06:28:04;;;;;;;2.70;2.50;;;;;;;;;;5076958;28;20200;-61
2023/01/27 06:30:32;;;;;;;3.28;2.70;;;;;;;;;;5094676;28;20222;-61
2023/01/27 06:32:59;;;;;;;3.33;2.60;;;;;;;;;;5095100;28;20203;-62
2023/01/27 06:35:27;;;;;;;2.75;2.50;;;;;;;;;;5094919;28;20572;-61
2023/01/27 06:37:54;;;;;;;2.70;2.50;;;;;;;;;;5095588;28;20253;-61
2023/01/27 06:40:23;;;;;;;3.00;2.63;;;;;;;;;;5089398;28;20200;-61
2023/01/27 06:42:50;;;;;;;3.00;2.70;;;;;;;;;;5074726;28;20211;-62
2023/01/27 06:45:18;;;;;;;2.83;2.35;;;;;;;;;;5075070;28;20211;-62
2023/01/27 06:47:45;;;;;;;3.22;2.80;;;;;;;;;;5077682;28;20207;-62
2023/01/27 06:50:13;;;;;;;2.78;2.50;;;;;;;;;;5054466;28;20254;-62
2023/01/27 06:52:40;;;;;;;2.70;2.50;;;;;;;;;;5066079;28;20440;-61
2023/01/27 06:55:08;;;;;;;2.78;2.47;;;;;;;;;;5094112;28;20213;-62
2023/01/27 06:57:36;;;;;;;2.88;2.45;;;;;;;;;;5095169;28;20234;-62
2023/01/27 07:00:04;;;;;;;3.03;2.42;;;;;;;;;;5094669;28;20294;-61
2023/01/27 07:02:31;;;;;;;3.17;2.70;;;;;;;;;;5093997;28;20203;-61
2023/01/27 07:04:59;;;;;;;4.50;3.40;;;;;;;;;;5086353;28;20197;-61
2023/01/27 07:07:26;;;;;;;7.22;4.05;;;;;;;;;;5074576;28;20208;-62
2023/01/27 07:09:54;;;;;;;8.93;4.75;;;;;;;;;;5073767;28;20219;-62
2023/01/27 07:12:21;;;;;;;11.55;5.15;;;;;;;;;;5074275;28;20215;-62
2023/01/27 07:14:50;;;;;;;10.40;5.07;;;;;;;;;;5075504;28;20202;-62
2023/01/27 07:17:17;;;;;;;11.13;5.43;;;;;;;;;;5074591;28;20224;-62
2023/01/27 07:19:45;;;;;;;11.43;6.00;;;;;;;;;;5074918;28;20215;-61
2023/01/27 07:22:12;;;;;;;10.63;5.40;;;;;;;;;;5074251;28;20209;-61
2023/01/27 07:24:40;;;;;;;13.98;5.90;;;;;;;;;;5074936;28;20204;-61
2023/01/27 07:27:07;;;;;;;14.15;6.53;;;;;;;;;;5078674;28;20200;-61
2023/01/27 07:29:35;;;;;;;12.90;6.57;;;;;;;;;;5078862;28;20196;-61
2023/01/27 07:32:04;;;;;;;16.95;6.90;;;;;;;;;;5078729;28;20546;-61
2023/01/27 07:34:31;;;;;;;15.63;7.15;;;;;;;;;;5079154;28;20204;-61
2023/01/27 07:36:58;;;;;;;15.05;7.10;;;;;;;;;;5078555;28;20228;-62
2023/01/27 07:39:26;;;;;;;15.90;7.50;;;;;;;;;;5077947;28;20720;-62
2023/01/27 07:41:54;;;;;;;14.90;7.03;;;;;;;;;;5089889;28;20200;-62
2023/01/27 07:44:21;;;;;;;15.25;7.00;;;;;;;;;;5098679;28;20278;-61
2023/01/27 07:46:48;;;;;;;14.40;6.95;;;;;;;;;;5098614;28;20207;-62
2023/01/27 07:49:17;;;;;;;16.25;7.43;;;;;;;;;;5096050;28;20602;-61
2023/01/27 07:51:45;;;;;;;14.30;7.15;;;;;;;;;;5073033;28;20268;-61
2023/01/27 07:54:12;;;;;;;14.48;7.18;;;;;;;;;;5056610;28;20229;-61
2023/01/27 07:56:39;;;;;;;14.05;7.03;;;;;;;;;;5058227;28;20225;-62
2023/01/27 07:59:07;;;;;;;15.90;7.45;;;;;;;;;;5057613;28;20228;-62
2023/01/27 08:01:34;;;;;;;13.63;7.45;;;;;;;;;;5057269;28;20198;-61
2023/01/27 08:04:01;;;;;;;13.10;7.03;;;;;;;;;;5057161;28;20510;-61
2023/01/27 08:06:31;;;;;;;11.95;6.22;;;;;;;;;;5056186;28;20205;-62
2023/01/27 08:08:59;;;;;;;14.68;7.15;;;;;;;;;;5057293;28;20657;-61
2023/01/27 08:11:26;;;;;;;13.68;6.68;;;;;;;;;;5056451;28;20205;-62
2023/01/27 08:13:54;;;;;;;12.13;6.57;;;;;;;;;;5057848;28;20505;-62
2023/01/27 08:16:21;;;;;;;13.18;6.35;;;;;;;;;;5058010;28;20227;-61
2023/01/27 08:18:49;;;;;;;12.23;7.22;;;;;;;;;;5057051;28;20224;-62
2023/01/27 08:21:16;;;;;;;11.65;7.03;;;;;;;;;;5057753;28;20204;-62
2023/01/27 08:23:45;;;;;;;12.43;6.63;;;;;;;;;;5057466;28;20205;-61
2023/01/27 08:26:13;;;;;;;12.75;6.20;;;;;;;;;;5057233;28;20288;-61
2023/01/27 08:28:40;;;;;;;12.90;6.75;;;;;;;;;;5056975;28;20204;-62
2023/01/27 08:31:08;;;;;;;11.75;6.10;;;;;;;;;;5057030;28;20203;-61
2023/01/27 08:33:36;;;;;;;10.55;6.30;;;;;;;;;;5057728;28;20197;-61
2023/01/27 08:36:05;;;;;;;14.30;6.38;;;;;;;;;;5056373;28;20204;-62
2023/01/27 08:38:34;;;;;;;10.90;5.93;;;;;;;;;;5056885;28;20231;-62
2023/01/27 08:41:05;;;;;;;10.25;6.00;;;;;;;;;;5056842;28;20297;-62
2023/01/27 08:43:33;;;;;;;9.80;5.90;;;;;;;;;;5056571;28;20205;-62
2023/01/27 08:46:00;;;;;;;9.93;5.82;;;;;;;;;;5056761;28;20311;-62
2023/01/27 08:48:29;;;;;;;11.30;5.93;;;;;;;;;;5056253;28;20285;-61
2023/01/27 08:50:57;;;;;;;10.20;6.03;;;;;;;;;;5057031;28;20205;-61
2023/01/27 08:53:24;;;;;;;9.70;5.38;;;;;;;;;;5074957;28;20236;-61
2023/01/27 08:55:53;;;;;;;8.93;5.10;;;;;;;;;;5076607;28;20208;-62
2023/01/27 08:58:22;;;;;;;9.57;5.50;;;;;;;;;;5076431;28;20232;-62
2023/01/27 09:00:50;;;;;;;8.40;5.75;;;;;;;;;;5077010;28;20486;-61
2023/01/27 09:03:18;;;;;;;9.30;5.20;;;;;;;;;;5076720;28;20287;-61
2023/01/27 09:05:45;;;;;;;10.38;5.30;;;;;;;;;;5076796;28;20210;-61
2023/01/27 09:08:13;;;;;;;8.30;4.88;;;;;;;;;;5076161;28;20223;-62
2023/01/27 09:10:41;;;;;;;7.05;4.78;;;;;;;;;;5076054;28;20204;-62
2023/01/27 09:13:09;;;;;;;6.65;4.97;;;;;;;;;;5076234;28;20572;-61
2023/01/27 09:15:39;;;;;;;7.30;5.00;;;;;;;;;;5076474;28;20464;-61
2023/01/27 09:18:06;;;;;;;8.00;5.15;;;;;;;;;;5076189;28;20263;-61
2023/01/27 09:20:35;;;;;;;8.93;5.45;;;;;;;;;;5075945;28;20204;-61
2023/01/27 09:23:03;;;;;;;8.07;5.25;;;;;;;;;;5076013;28;20212;-62
2023/01/27 09:25:31;;;;;;;8.27;4.75;;;;;;;;;;5075170;28;20204;-62
2023/01/27 09:28:00;;;;;;;7.05;4.85;;;;;;;;;;5075706;28;20192;-62
2023/01/27 09:30:28;;;;;;;7.25;4.65;;;;;;;;;;5075824;28;20212;-62
2023/01/27 09:33:00;;;;;;;8.05;4.78;;;;;;;;;;5076533;28;20220;-62
2023/01/27 09:35:28;;;;;;;8.13;5.00;;;;;;;;;;5076441;28;20295;-61
2023/01/27 09:37:57;;;;;;;6.13;4.35;;;;;;;;;;5076101;28;20500;-61
2023/01/27 09:40:32;;;;;;;6.55;4.15;;;;;;;;;;5074836;28;20674;-61
2023/01/27 09:43:15;;;;;;;5.40;4.15;;;;;;;;;;5085578;28;20199;-61
2023/01/27 09:45:51;;;;;;;7.95;4.65;;;;;;;;;;5088825;28;20193;-61
2023/01/27 09:48:35;;;;;;;5.90;4.30;;;;;;;;;;5074825;28;20200;-62
2023/01/27 09:51:06;;;;;;;6.68;4.28;;;;;;;;;;5075543;28;20204;-61
2023/01/27 09:53:48;;;;;;;4.32;3.50;;;;;;;;;;5075080;28;20247;-61
2023/01/27 09:56:19;;;;;;;7.47;4.20;;;;;;;;;;5074225;28;20669;-61
2023/01/27 09:58:55;;;;;;;5.68;3.97;;;;;;;;;;5075143;28;20678;-61
2023/01/27 10:01:27;;;;;;;6.88;4.20;;;;;;;;;;5074313;28;20685;-61
2023/01/27 10:04:05;;;;;;;6.63;4.35;;;;;;;;;;5074516;28;20599;-61
2023/01/27 10:06:41;;;;;;;5.90;4.15;;;;;;;;;;5074954;28;20584;-62
2023/01/27 10:09:23;;;;;;;6.00;3.85;;;;;;;;;;5074605;28;20202;-61
2023/01/27 10:11:57;;;;;;;5.53;3.90;;;;;;;;;;5070053;28;20204;-62
2023/01/27 10:14:28;;;;;;;4.63;3.42;;;;;;;;;;5074497;28;20204;-61
2023/01/27 10:17:06;;;;;;;5.93;3.92;;;;;;;;;;5074420;28;20189;-61
2023/01/27 10:19:42;;;;;;;6.45;4.07;;;;;;;;;;5075157;28;20262;-61
2023/01/27 10:22:15;;;;;;;5.47;3.83;;;;;;;;;;5073097;28;20196;-61
2023/01/27 10:24:48;;;;;;;6.68;3.88;;;;;;;;;;5073375;28;20211;-61
2023/01/27 10:27:17;;;;;;;4.88;3.58;;;;;;;;;;5073745;28;20507;-61
2023/01/27 10:29:46;;;;;;;5.25;3.53;;;;;;;;;;5073072;28;20196;-61
2023/01/27 10:32:17;;;;;;;5.75;3.85;;;;;;;;;;5072910;28;20200;-61
2023/01/27 10:34:49;;;;;;;5.28;3.75;;;;;;;;;;5075694;28;20208;-61
2023/01/27 10:37:21;;;;;;;4.38;3.53;;;;;;;;;;5073739;28;20192;-62
2023/01/27 10:39:51;;;;;;;4.60;3.40;;;;;;;;;;5073978;28;20204;-61
2023/01/27 10:42:23;;;;;;;6.57;3.60;;;;;;;;;;5074184;28;20498;-62
2023/01/27 10:44:59;;;;;;;6.15;3.97;;;;;;;;;;5074056;28;20207;-61
2023/01/27 10:47:29;;;;;;;5.70;3.45;;;;;;;;;;5073499;28;20215;-61
2023/01/27 10:50:00;;;;;;;5.63;4.05;;;;;;;;;;5073490;28;20275;-61
2023/01/27 10:52:31;;;;;;;5.20;4.05;;;;;;;;;;5073217;28;20242;-61
2023/01/27 10:55:01;;;;;;;5.70;3.80;;;;;;;;;;5073919;28;20204;-62
2023/01/27 10:57:31;;;;;;;5.88;3.55;;;;;;;;;;5073494;28;20205;-62
2023/01/27 11:00:04;;;;;;;6.00;4.03;;;;;;;;;;5075354;28;20219;-62
2023/01/27 11:02:34;;;;;;;6.10;3.53;;;;;;;;;;5076985;28;20287;-61
2023/01/27 11:05:06;;;;;;;6.50;3.80;;;;;;;;;;5077150;28;20230;-61
2023/01/27 11:07:34;;;;;;;5.38;3.80;;;;;;;;;;5083681;28;20206;-61
2023/01/27 11:10:03;;;;;;;5.72;3.97;;;;;;;;;;5098262;28;20695;-61
2023/01/27 11:12:32;;;;;;;5.10;3.78;;;;;;;;;;5096934;28;20203;-61
2023/01/27 11:14:59;;;;;;;5.25;3.78;;;;;;;;;;5097510;28;20204;-62
2023/01/27 11:17:30;;;;;;;6.20;3.58;;;;;;;;;;5097516;28;20374;-61
2023/01/27 11:20:02;;;;;;;5.47;3.47;;;;;;;;;;5081302;28;20200;-61
2023/01/27 11:22:37;;;;;;;5.38;3.72;;;;;;;;;;5076426;28;20196;-61
2023/01/27 11:25:06;;;;;;;5.03;3.90;;;;;;;;;;5076384;28;20477;-61
2023/01/27 11:27:42;;;;;;;3.83;3.15;;;;;;;;;;5077032;28;20200;-62
2023/01/27 11:30:13;;;;;;;6.43;3.70;;;;;;;;;;5059534;28;20290;-62
2023/01/27 11:32:45;;;;;;;4.47;3.55;;;;;;;;;;5076797;28;20214;-61
2023/01/27 11:35:13;;;;;;;5.10;3.85;;;;;;;;;;5077031;28;20197;-62
2023/01/27 11:37:43;;;;;;;6.13;3.72;;;;;;;;;;5077104;28;20592;-61
2023/01/27 11:40:16;;;;;;;4.35;3.65;;;;;;;;;;5077026;28;20197;-61
2023/01/27 11:42:44;;;;;;;4.70;3.65;;;;;;;;;;5076710;28;20295;-61
2023/01/27 11:45:14;;;;;;;4.85;3.67;;;;;;;;;;5076945;28;20197;-61
2023/01/27 11:47:43;;;;;;;4.60;3.30;;;;;;;;;;5076914;28;20593;-62
2023/01/27 11:50:14;;;;;;;4.72;3.67;;;;;;;;;;5077521;28;20480;-61
2023/01/27 11:52:43;;;;;;;4.20;3.60;;;;;;;;;;5076652;28;20242;-61
2023/01/27 11:55:16;;;;;;;4.50;3.60;;;;;;;;;;5076194;28;20195;-61
2023/01/27 11:57:43;;;;;;;5.93;3.75;;;;;;;;;;5076011;28;20599;-61
2023/01/27 12:00:19;;;;;;;4.18;3.38;;;;;;;;;;5075980;28;20207;-61
2023/01/27 12:02:53;;;;;;;5.10;4.03;;;;;;;;;;5074204;28;20626;-61
2023/01/27 12:05:25;;;;;;;5.43;3.88;;;;;;;;;;5074724;28;20599;-61
2023/01/27 12:07:55;;;;;;;4.07;3.67;;;;;;;;;;5075402;28;20208;-62
2023/01/27 12:10:26;;;;;;;4.57;3.50;;;;;;;;;;5075738;28;20502;-61
2023/01/27 12:12:54;;;;;;;4.60;4.10;;;;;;;;;;5075953;28;20514;-61
2023/01/27 12:15:22;;;;;;;3.92;3.42;;;;;;;;;;5076583;28;20477;-61
2023/01/27 12:17:52;;;;;;;4.40;3.70;;;;;;;;;;5075034;28;20196;-61
2023/01/27 12:20:27;;;;;;;3.70;3.38;;;;;;;;;;5075169;28;20615;-61
2023/01/27 12:22:58;;;;;;;4.40;3.60;;;;;;;;;;5075541;28;20202;-61
2023/01/27 12:25:27;;;;;;;4.25;3.63;;;;;;;;;;5074778;28;20200;-61
2023/01/27 12:27:57;;;;;;;4.28;3.42;;;;;;;;;;5075737;28;20250;-61
2023/01/27 12:30:27;;;;;;;4.68;3.67;;;;;;;;;;5075129;28;20192;-61
2023/01/27 12:32:54;;;;;;;4.80;3.42;;;;;;;;;;5076083;28;20226;-61
2023/01/27 12:35:24;;;;;;;3.85;3.45;;;;;;;;;;5075774;28;20196;-61
2023/01/27 12:37:56;;;;;;;3.92;3.50;;;;;;;;;;5056294;28;20201;-61
2023/01/27 12:40:27;;;;;;;3.80;3.38;;;;;;;;;;5060910;28;20193;-61
2023/01/27 12:43:04;;;;;;;4.15;3.40;;;;;;;;;;5075923;28;20586;-61
2023/01/27 12:45:33;;;;;;;3.80;2.97;;;;;;;;;;5075082;28;20215;-61
2023/01/27 12:48:02;;;;;;;4.15;3.75;;;;;;;;;;5074906;28;20196;-61
2023/01/27 12:50:31;;;;;;;3.50;3.17;;;;;;;;;;5074465;28;20259;-61
2023/01/27 12:53:05;;;;;;;3.35;3.05;;;;;;;;;;5076054;28;20232;-61
2023/01/27 12:55:35;;;;;;;4.00;3.55;;;;;;;;;;5096144;28;20547;-61
2023/01/27 12:58:04;;;;;;;4.00;3.60;;;;;;;;;;5096599;28;20215;-61
2023/01/27 13:00:31;;;;;;;3.70;3.10;;;;;;;;;;5096056;28;20249;-61
2023/01/27 13:03:03;;;;;;;3.13;2.83;;;;;;;;;;5094344;28;20215;-61
2023/01/27 13:05:36;;;;;;;3.40;3.10;;;;;;;;;;5088283;28;20192;-61
2023/01/27 13:08:03;;;;;;;3.88;3.47;;;;;;;;;;5075306;28;20612;-61
2023/01/27 13:10:30;;;;;;;3.90;3.50;;;;;;;;;;5075381;28;20235;-61
2023/01/27 13:13:00;;;;;;;3.92;3.40;;;;;;;;;;5075353;28;20196;-61
2023/01/27 13:15:29;;;;;;;4.05;3.35;;;;;;;;;;5075132;28;20273;-61
2023/01/27 13:17:58;;;;;;;3.53;3.22;;;;;;;;;;5075789;28;20283;-62
2023/01/27 13:20:27;;;;;;;3.03;2.67;;;;;;;;;;5075444;28;20295;-62
2023/01/27 13:22:57;;;;;;;3.70;3.40;;;;;;;;;;5075103;28;20207;-61
2023/01/27 13:25:27;;;;;;;3.20;2.90;;;;;;;;;;5074940;28;20502;-61
2023/01/27 13:27:56;;;;;;;4.38;3.53;;;;;;;;;;5075060;28;20267;-61
2023/01/27 13:30:28;;;;;;;3.50;3.20;;;;;;;;;;5075067;28;20197;-61
2023/01/27 13:32:58;;;;;;;3.88;3.03;;;;;;;;;;5074178;28;20207;-61
2023/01/27 13:35:26;;;;;;;3.30;3.00;;;;;;;;;;5074389;28;20204;-61
2023/01/27 13:38:00;;;;;;;3.83;2.85;;;;;;;;;;5074336;28;20208;-61
2023/01/27 13:40:29;;;;;;;3.47;3.17;;;;;;;;;;5075116;28;20234;-61
2023/01/27 13:43:00;;;;;;;3.28;2.97;;;;;;;;;;5074753;28;20262;-61
2023/01/27 13:45:36;;;;;;;3.10;2.80;;;;;;;;;;5075559;28;20258;-61
2023/01/27 13:48:05;;;;;;;3.65;2.92;;;;;;;;;;5074871;28;20200;-61
2023/01/27 13:50:36;;;;;;;3.38;2.72;;;;;;;;;;5073560;28;20200;-61
2023/01/27 13:53:04;;;;;;;4.03;2.92;;;;;;;;;;5073767;28;20232;-62
2023/01/27 13:55:42;;;;;;;2.97;2.67;;;;;;;;;;5068474;28;20221;-61
2023/01/27 13:58:13;;;;;;;3.53;2.92;;;;;;;;;;5072376;28;20196;-61
2023/01/27 14:00:47;;;;;;;2.83;2.60;;;;;;;;;;5072124;28;20193;-61
2023/01/27 14:03:34;;;;;;;3.05;2.72;;;;;;;;;;5071346;28;20285;-61
2023/01/27 14:06:07;;;;;;;2.90;2.60;;;;;;;;;;5073228;28;20728;-61
2023/01/27 14:08:49;;;;;;;2.80;2.50;;;;;;;;;;5074165;28;20196;-61
2023/01/27 14:11:19;;;;;;;2.75;2.47;;;;;;;;;;5070366;28;20226;-61
2023/01/27 14:13:53;;;;;;;3.00;2.70;;;;;;;;;;5073756;28;20200;-61
2023/01/27 14:16:25;;;;;;;2.90;2.60;;;;;;;;;;5060291;28;20215;-61
2023/01/27 14:18:57;;;;;;;3.10;2.80;;;;;;;;;;5073181;28;20224;-61
2023/01/27 14:21:28;;;;;;;3.42;2.70;;;;;;;;;;5074260;28;20192;-61
2023/01/27 14:24:00;;;;;;;2.70;2.50;;;;;;;;;;5074954;28;20204;-61
2023/01/27 14:26:35;;;;;;;2.67;2.47;;;;;;;;;;5073497;28;20211;-61
2023/01/27 14:29:06;;;;;;;2.83;2.40;;;;;;;;;;5073100;28;20188;-62
2023/01/27 14:31:40;;;;;;;2.55;2.35;;;;;;;;;;5074048;28;20239;-61
2023/01/27 14:34:13;;;;;;;3.10;2.33;;;;;;;;;;5074375;28;20200;-61
2023/01/27 14:36:44;;;;;;;2.97;2.60;;;;;;;;;;5074330;28;20197;-61
2023/01/27 14:39:16;;;;;;;2.40;2.20;;;;;;;;;;5074304;28;20224;-61
2023/01/27 14:41:46;;;;;;;2.90;2.60;;;;;;;;;;5073801;28;20211;-62
2023/01/27 14:44:17;;;;;;;2.50;2.30;;;;;;;;;;5073582;28;20196;-61
2023/01/27 14:46:54;;;;;;;2.67;2.47;;;;;;;;;;5073206;28;20207;-61
2023/01/27 14:49:28;;;;;;;2.47;2.28;;;;;;;;;;5073893;28;20196;-61
2023/01/27 14:51:58;;;;;;;2.30;2.10;;;;;;;;;;5073152;28;20250;-61
2023/01/27 14:54:36;;;;;;;2.58;2.38;;;;;;;;;;5073298;28;20203;-61
2023/01/27 14:57:11;;;;;;;2.53;2.33;;;;;;;;;;5073737;28;20581;-61
2023/01/27 14:59:43;;;;;;;2.40;2.20;;;;;;;;;;5072398;28;20223;-61
2023/01/27 15:02:17;;;;;;;2.25;2.05;;;;;;;;;;5073640;28;20207;-61
2023/01/27 15:04:49;;;;;;;2.42;2.22;;;;;;;;;;5081663;28;20207;-61
2023/01/27 15:07:18;;;;;;;2.20;2.00;;;;;;;;;;5094203;28;20222;-61
2023/01/27 15:10:03;;;;;;;1.98;1.88;;;;;;;;;;5094321;28;20628;-61
2023/01/27 15:12:39;;;;;;;2.08;1.88;;;;;;;;;;5093710;28;20211;-62
2023/01/27 15:15:17;;;;;;;2.35;1.92;;;;;;;;;;5093462;28;20206;-61
2023/01/27 15:17:53;;;;;;;2.20;2.00;;;;;;;;;;5076151;28;20196;-61
2023/01/27 15:20:30;;;;;;;2.40;2.20;;;;;;;;;;5073748;28;20224;-61